sensor_id;sensor_type;location;lat;lon;timestamp;P1;durP1;ratioP1;P2;durP2;ratioP2
74543;SDS011;63016;55.030;38.710;2022-11-23T00:02:15;0.88;;;0.52;;
74543;SDS011;63016;55.030;38.710;2022-11-23T00:04:41;1.20;;;0.70;;
74543;SDS011;63016;55.030;38.710;2022-11-23T00:07:06;1.25;;;0.60;;
74543;SDS011;63016;55.030;38.710;2022-11-23T00:09:32;1.58;;;0.93;;
74543;SDS011;63016;55.030;38.710;2022-11-23T00:11:57;1.20;;;0.60;;
74543;SDS011;63016;55.030;38.710;2022-11-23T00:14:23;4.05;;;0.60;;
74543;SDS011;63016;55.030;38.710;2022-11-23T00:16:48;1.35;;;0.70;;
74543;SDS011;63016;55.030;38.710;2022-11-23T00:19:13;2.45;;;0.60;;
74543;SDS011;63016;55.030;38.710;2022-11-23T00:21:39;0.80;;;0.50;;
74543;SDS011;63016;55.030;38.710;2022-11-23T00:24:05;1.15;;;0.70;;
74543;SDS011;63016;55.030;38.710;2022-11-23T00:26:30;5.53;;;0.73;;
74543;SDS011;63016;55.030;38.710;2022-11-23T00:28:56;0.77;;;0.50;;
74543;SDS011;63016;55.030;38.710;2022-11-23T00:31:21;0.98;;;0.68;;
74543;SDS011;63016;55.030;38.710;2022-11-23T00:33:50;2.35;;;0.63;;
74543;SDS011;63016;55.030;38.710;2022-11-23T00:36:17;3.92;;;0.70;;
74543;SDS011;63016;55.030;38.710;2022-11-23T00:38:44;1.33;;;0.50;;
74543;SDS011;63016;55.030;38.710;2022-11-23T00:41:14;1.58;;;0.80;;
74543;SDS011;63016;55.030;38.710;2022-11-23T00:43:42;1.73;;;0.80;;
74543;SDS011;63016;55.030;38.710;2022-11-23T00:48:40;1.35;;;0.60;;
74543;SDS011;63016;55.030;38.710;2022-11-23T00:51:07;2.58;;;0.80;;
74543;SDS011;63016;55.030;38.710;2022-11-23T00:53:34;1.33;;;0.60;;
74543;SDS011;63016;55.030;38.710;2022-11-23T00:56:00;1.23;;;0.60;;
74543;SDS011;63016;55.030;38.710;2022-11-23T00:58:26;1.38;;;0.70;;
74543;SDS011;63016;55.030;38.710;2022-11-23T01:01:11;2.65;;;0.73;;
74543;SDS011;63016;55.030;38.710;2022-11-23T01:03:39;2.08;;;0.80;;
74543;SDS011;63016;55.030;38.710;2022-11-23T01:06:11;2.13;;;0.82;;
74543;SDS011;63016;55.030;38.710;2022-11-23T01:08:41;6.47;;;0.80;;
74543;SDS011;63016;55.030;38.710;2022-11-23T01:11:08;1.20;;;0.63;;
74543;SDS011;63016;55.030;38.710;2022-11-23T01:13:36;1.35;;;0.70;;
74543;SDS011;63016;55.030;38.710;2022-11-23T01:16:04;1.75;;;0.80;;
74543;SDS011;63016;55.030;38.710;2022-11-23T01:18:32;1.38;;;0.70;;
74543;SDS011;63016;55.030;38.710;2022-11-23T01:20:59;2.60;;;0.73;;
74543;SDS011;63016;55.030;38.710;2022-11-23T01:23:27;1.45;;;0.70;;
74543;SDS011;63016;55.030;38.710;2022-11-23T01:25:54;1.00;;;0.60;;
74543;SDS011;63016;55.030;38.710;2022-11-23T01:28:20;1.60;;;0.70;;
74543;SDS011;63016;55.030;38.710;2022-11-23T01:30:45;1.58;;;0.77;;
74543;SDS011;63016;55.030;38.710;2022-11-23T01:33:11;1.30;;;0.60;;
74543;SDS011;63016;55.030;38.710;2022-11-23T01:35:36;1.30;;;0.63;;
74543;SDS011;63016;55.030;38.710;2022-11-23T01:38:02;1.73;;;0.80;;
74543;SDS011;63016;55.030;38.710;2022-11-23T01:40:27;1.42;;;0.85;;
74543;SDS011;63016;55.030;38.710;2022-11-23T01:42:57;7.03;;;0.90;;
74543;SDS011;63016;55.030;38.710;2022-11-23T01:45:34;3.65;;;0.80;;
74543;SDS011;63016;55.030;38.710;2022-11-23T01:48:05;2.15;;;0.90;;
74543;SDS011;63016;55.030;38.710;2022-11-23T01:50:45;1.73;;;1.20;;
74543;SDS011;63016;55.030;38.710;2022-11-23T01:53:12;1.10;;;0.70;;
74543;SDS011;63016;55.030;38.710;2022-11-23T01:55:39;1.88;;;0.80;;
74543;SDS011;63016;55.030;38.710;2022-11-23T01:58:06;3.20;;;1.10;;
74543;SDS011;63016;55.030;38.710;2022-11-23T02:00:34;1.90;;;1.00;;
74543;SDS011;63016;55.030;38.710;2022-11-23T02:03:00;2.63;;;1.17;;
74543;SDS011;63016;55.030;38.710;2022-11-23T02:06:03;1.60;;;1.02;;
74543;SDS011;63016;55.030;38.710;2022-11-23T02:08:25;2.53;;;1.40;;
74543;SDS011;63016;55.030;38.710;2022-11-23T02:10:53;2.85;;;1.15;;
74543;SDS011;63016;55.030;38.710;2022-11-23T02:13:21;4.13;;;1.23;;
74543;SDS011;63016;55.030;38.710;2022-11-23T02:15:47;2.88;;;1.60;;
74543;SDS011;63016;55.030;38.710;2022-11-23T02:18:15;2.97;;;1.60;;
74543;SDS011;63016;55.030;38.710;2022-11-23T02:20:43;4.10;;;1.30;;
74543;SDS011;63016;55.030;38.710;2022-11-23T02:26:21;4.90;;;1.23;;
74543;SDS011;63016;55.030;38.710;2022-11-23T02:28:46;5.68;;;1.02;;
74543;SDS011;63016;55.030;38.710;2022-11-23T02:31:17;6.95;;;1.13;;
74543;SDS011;63016;55.030;38.710;2022-11-23T02:33:43;2.30;;;1.10;;
74543;SDS011;63016;55.030;38.710;2022-11-23T02:36:30;2.50;;;1.08;;
74543;SDS011;63016;55.030;38.710;2022-11-23T02:39:02;4.18;;;1.00;;
74543;SDS011;63016;55.030;38.710;2022-11-23T02:41:36;4.43;;;1.00;;
74543;SDS011;63016;55.030;38.710;2022-11-23T02:44:20;2.30;;;1.00;;
74543;SDS011;63016;55.030;38.710;2022-11-23T02:46:56;4.38;;;1.00;;
74543;SDS011;63016;55.030;38.710;2022-11-23T02:49:22;1.95;;;1.00;;
74543;SDS011;63016;55.030;38.710;2022-11-23T02:51:48;8.88;;;1.02;;
74543;SDS011;63016;55.030;38.710;2022-11-23T02:54:13;3.33;;;1.08;;
74543;SDS011;63016;55.030;38.710;2022-11-23T02:56:39;1.80;;;0.90;;
74543;SDS011;63016;55.030;38.710;2022-11-23T02:59:05;5.05;;;0.90;;
74543;SDS011;63016;55.030;38.710;2022-11-23T03:01:31;4.35;;;1.10;;
74543;SDS011;63016;55.030;38.710;2022-11-23T03:03:57;3.47;;;1.15;;
74543;SDS011;63016;55.030;38.710;2022-11-23T03:06:22;2.13;;;1.15;;
74543;SDS011;63016;55.030;38.710;2022-11-23T03:08:48;2.10;;;0.90;;
74543;SDS011;63016;55.030;38.710;2022-11-23T03:11:13;3.78;;;1.13;;
74543;SDS011;63016;55.030;38.710;2022-11-23T03:13:39;3.38;;;0.93;;
74543;SDS011;63016;55.030;38.710;2022-11-23T03:16:04;2.17;;;0.93;;
74543;SDS011;63016;55.030;38.710;2022-11-23T03:18:30;3.53;;;0.93;;
74543;SDS011;63016;55.030;38.710;2022-11-23T03:21:00;2.22;;;0.73;;
74543;SDS011;63016;55.030;38.710;2022-11-23T03:23:26;2.47;;;0.90;;
74543;SDS011;63016;55.030;38.710;2022-11-23T03:25:58;3.03;;;1.13;;
74543;SDS011;63016;55.030;38.710;2022-11-23T03:28:24;2.63;;;1.20;;
74543;SDS011;63016;55.030;38.710;2022-11-23T03:30:50;2.72;;;1.30;;
74543;SDS011;63016;55.030;38.710;2022-11-23T03:33:16;3.08;;;1.50;;
74543;SDS011;63016;55.030;38.710;2022-11-23T03:35:42;4.47;;;0.95;;
74543;SDS011;63016;55.030;38.710;2022-11-23T03:38:08;3.42;;;1.20;;
74543;SDS011;63016;55.030;38.710;2022-11-23T03:40:33;3.05;;;1.23;;
74543;SDS011;63016;55.030;38.710;2022-11-23T03:42:59;4.82;;;1.30;;
74543;SDS011;63016;55.030;38.710;2022-11-23T03:45:24;5.82;;;1.23;;
74543;SDS011;63016;55.030;38.710;2022-11-23T03:47:50;3.63;;;0.80;;
74543;SDS011;63016;55.030;38.710;2022-11-23T03:50:16;3.33;;;1.00;;
74543;SDS011;63016;55.030;38.710;2022-11-23T03:52:41;6.07;;;2.80;;
74543;SDS011;63016;55.030;38.710;2022-11-23T03:55:07;10.45;;;2.60;;
74543;SDS011;63016;55.030;38.710;2022-11-23T03:57:33;6.57;;;2.65;;
74543;SDS011;63016;55.030;38.710;2022-11-23T03:59:58;8.70;;;2.58;;
74543;SDS011;63016;55.030;38.710;2022-11-23T04:02:24;6.93;;;2.08;;
74543;SDS011;63016;55.030;38.710;2022-11-23T04:04:49;8.02;;;2.10;;
74543;SDS011;63016;55.030;38.710;2022-11-23T04:07:15;7.43;;;2.28;;
74543;SDS011;63016;55.030;38.710;2022-11-23T04:09:41;4.78;;;1.90;;
74543;SDS011;63016;55.030;38.710;2022-11-23T04:12:07;6.68;;;1.98;;
74543;SDS011;63016;55.030;38.710;2022-11-23T04:14:34;4.93;;;2.08;;
74543;SDS011;63016;55.030;38.710;2022-11-23T04:16:59;24.75;;;1.90;;
74543;SDS011;63016;55.030;38.710;2022-11-23T04:19:26;3.97;;;1.35;;
74543;SDS011;63016;55.030;38.710;2022-11-23T04:21:53;4.68;;;1.67;;
74543;SDS011;63016;55.030;38.710;2022-11-23T04:24:18;13.73;;;1.88;;
74543;SDS011;63016;55.030;38.710;2022-11-23T04:26:44;4.32;;;1.80;;
74543;SDS011;63016;55.030;38.710;2022-11-23T04:29:10;8.30;;;1.75;;
74543;SDS011;63016;55.030;38.710;2022-11-23T04:31:36;5.55;;;1.65;;
74543;SDS011;63016;55.030;38.710;2022-11-23T04:34:01;4.80;;;1.73;;
74543;SDS011;63016;55.030;38.710;2022-11-23T04:36:27;10.55;;;2.33;;
74543;SDS011;63016;55.030;38.710;2022-11-23T04:38:53;7.65;;;2.28;;
74543;SDS011;63016;55.030;38.710;2022-11-23T04:41:18;7.03;;;2.35;;
74543;SDS011;63016;55.030;38.710;2022-11-23T04:43:46;9.18;;;2.13;;
74543;SDS011;63016;55.030;38.710;2022-11-23T04:46:12;12.07;;;2.38;;
74543;SDS011;63016;55.030;38.710;2022-11-23T04:48:38;8.35;;;2.20;;
74543;SDS011;63016;55.030;38.710;2022-11-23T04:51:03;6.82;;;2.42;;
74543;SDS011;63016;55.030;38.710;2022-11-23T04:53:29;9.88;;;2.00;;
74543;SDS011;63016;55.030;38.710;2022-11-23T04:55:54;5.35;;;2.05;;
74543;SDS011;63016;55.030;38.710;2022-11-23T04:58:20;7.70;;;2.03;;
74543;SDS011;63016;55.030;38.710;2022-11-23T05:00:45;7.28;;;2.30;;
74543;SDS011;63016;55.030;38.710;2022-11-23T05:03:11;6.03;;;2.22;;
74543;SDS011;63016;55.030;38.710;2022-11-23T05:05:37;6.43;;;2.50;;
74543;SDS011;63016;55.030;38.710;2022-11-23T05:08:04;6.95;;;2.08;;
74543;SDS011;63016;55.030;38.710;2022-11-23T05:10:30;6.53;;;2.10;;
74543;SDS011;63016;55.030;38.710;2022-11-23T05:12:55;7.80;;;2.78;;
74543;SDS011;63016;55.030;38.710;2022-11-23T05:15:21;6.55;;;2.35;;
74543;SDS011;63016;55.030;38.710;2022-11-23T05:17:46;8.55;;;2.72;;
74543;SDS011;63016;55.030;38.710;2022-11-23T05:20:12;8.32;;;2.20;;
74543;SDS011;63016;55.030;38.710;2022-11-23T05:22:38;6.75;;;2.63;;
74543;SDS011;63016;55.030;38.710;2022-11-23T05:25:03;6.57;;;2.33;;
74543;SDS011;63016;55.030;38.710;2022-11-23T05:27:29;6.72;;;2.45;;
74543;SDS011;63016;55.030;38.710;2022-11-23T05:29:55;6.38;;;2.30;;
74543;SDS011;63016;55.030;38.710;2022-11-23T05:32:20;10.10;;;2.58;;
74543;SDS011;63016;55.030;38.710;2022-11-23T05:34:46;5.57;;;2.25;;
74543;SDS011;63016;55.030;38.710;2022-11-23T05:37:11;5.88;;;2.22;;
74543;SDS011;63016;55.030;38.710;2022-11-23T05:39:37;6.25;;;2.30;;
74543;SDS011;63016;55.030;38.710;2022-11-23T05:42:02;5.53;;;2.30;;
74543;SDS011;63016;55.030;38.710;2022-11-23T05:44:28;6.65;;;2.67;;
74543;SDS011;63016;55.030;38.710;2022-11-23T05:46:54;6.93;;;2.42;;
74543;SDS011;63016;55.030;38.710;2022-11-23T05:49:20;6.88;;;2.90;;
74543;SDS011;63016;55.030;38.710;2022-11-23T05:51:45;6.32;;;2.70;;
74543;SDS011;63016;55.030;38.710;2022-11-23T05:54:11;8.48;;;2.58;;
74543;SDS011;63016;55.030;38.710;2022-11-23T05:56:36;8.02;;;2.75;;
74543;SDS011;63016;55.030;38.710;2022-11-23T05:59:02;4.93;;;2.53;;
74543;SDS011;63016;55.030;38.710;2022-11-23T06:01:29;8.10;;;2.25;;
74543;SDS011;63016;55.030;38.710;2022-11-23T06:03:55;6.38;;;2.85;;
74543;SDS011;63016;55.030;38.710;2022-11-23T06:06:21;7.40;;;2.67;;
74543;SDS011;63016;55.030;38.710;2022-11-23T06:08:48;14.77;;;2.95;;
74543;SDS011;63016;55.030;38.710;2022-11-23T06:11:14;9.48;;;3.47;;
74543;SDS011;63016;55.030;38.710;2022-11-23T06:13:39;7.80;;;3.17;;
74543;SDS011;63016;55.030;38.710;2022-11-23T06:16:05;5.53;;;2.70;;
74543;SDS011;63016;55.030;38.710;2022-11-23T06:18:31;8.70;;;3.15;;
74543;SDS011;63016;55.030;38.710;2022-11-23T06:20:59;8.07;;;3.25;;
74543;SDS011;63016;55.030;38.710;2022-11-23T06:23:25;7.03;;;3.13;;
74543;SDS011;63016;55.030;38.710;2022-11-23T06:25:51;8.70;;;2.45;;
74543;SDS011;63016;55.030;38.710;2022-11-23T06:28:17;6.50;;;2.47;;
74543;SDS011;63016;55.030;38.710;2022-11-23T06:30:42;6.65;;;2.58;;
74543;SDS011;63016;55.030;38.710;2022-11-23T06:33:08;7.47;;;2.50;;
74543;SDS011;63016;55.030;38.710;2022-11-23T06:35:34;6.85;;;2.65;;
74543;SDS011;63016;55.030;38.710;2022-11-23T06:37:59;4.75;;;2.17;;
74543;SDS011;63016;55.030;38.710;2022-11-23T06:40:25;5.97;;;2.50;;
74543;SDS011;63016;55.030;38.710;2022-11-23T06:42:50;5.43;;;2.00;;
74543;SDS011;63016;55.030;38.710;2022-11-23T06:45:21;4.78;;;2.00;;
74543;SDS011;63016;55.030;38.710;2022-11-23T06:47:47;7.47;;;2.08;;
74543;SDS011;63016;55.030;38.710;2022-11-23T06:50:12;5.05;;;2.22;;
74543;SDS011;63016;55.030;38.710;2022-11-23T06:52:38;3.92;;;1.95;;
74543;SDS011;63016;55.030;38.710;2022-11-23T06:55:04;4.57;;;2.33;;
74543;SDS011;63016;55.030;38.710;2022-11-23T06:57:29;15.30;;;2.75;;
74543;SDS011;63016;55.030;38.710;2022-11-23T06:59:55;5.32;;;2.33;;
74543;SDS011;63016;55.030;38.710;2022-11-23T07:02:20;6.00;;;2.20;;
74543;SDS011;63016;55.030;38.710;2022-11-23T07:04:46;4.90;;;1.90;;
74543;SDS011;63016;55.030;38.710;2022-11-23T07:07:12;5.45;;;2.05;;
74543;SDS011;63016;55.030;38.710;2022-11-23T07:09:37;4.22;;;1.90;;
74543;SDS011;63016;55.030;38.710;2022-11-23T07:12:03;6.30;;;1.90;;
74543;SDS011;63016;55.030;38.710;2022-11-23T07:14:28;4.40;;;1.90;;
74543;SDS011;63016;55.030;38.710;2022-11-23T07:16:54;3.75;;;1.55;;
74543;SDS011;63016;55.030;38.710;2022-11-23T07:19:20;4.95;;;2.10;;
74543;SDS011;63016;55.030;38.710;2022-11-23T07:21:45;6.18;;;1.92;;
74543;SDS011;63016;55.030;38.710;2022-11-23T07:24:11;4.75;;;1.90;;
74543;SDS011;63016;55.030;38.710;2022-11-23T07:26:36;6.50;;;2.00;;
74543;SDS011;63016;55.030;38.710;2022-11-23T07:29:02;4.93;;;1.88;;
74543;SDS011;63016;55.030;38.710;2022-11-23T07:31:27;7.50;;;2.17;;
74543;SDS011;63016;55.030;38.710;2022-11-23T07:33:53;4.07;;;1.80;;
74543;SDS011;63016;55.030;38.710;2022-11-23T07:36:18;4.28;;;2.10;;
74543;SDS011;63016;55.030;38.710;2022-11-23T07:38:44;3.17;;;1.63;;
74543;SDS011;63016;55.030;38.710;2022-11-23T07:41:09;3.40;;;1.65;;
74543;SDS011;63016;55.030;38.710;2022-11-23T07:43:35;3.25;;;1.50;;
74543;SDS011;63016;55.030;38.710;2022-11-23T07:46:00;3.70;;;1.80;;
74543;SDS011;63016;55.030;38.710;2022-11-23T07:48:26;2.53;;;1.67;;
74543;SDS011;63016;55.030;38.710;2022-11-23T07:50:52;3.30;;;1.60;;
74543;SDS011;63016;55.030;38.710;2022-11-23T07:53:19;4.82;;;1.30;;
74543;SDS011;63016;55.030;38.710;2022-11-23T07:55:45;3.47;;;1.42;;
74543;SDS011;63016;55.030;38.710;2022-11-23T07:58:10;3.45;;;1.73;;
74543;SDS011;63016;55.030;38.710;2022-11-23T08:00:36;3.28;;;1.33;;
74543;SDS011;63016;55.030;38.710;2022-11-23T08:03:03;3.75;;;1.50;;
74543;SDS011;63016;55.030;38.710;2022-11-23T08:05:32;2.75;;;1.40;;
74543;SDS011;63016;55.030;38.710;2022-11-23T08:08:00;3.30;;;1.45;;
74543;SDS011;63016;55.030;38.710;2022-11-23T08:10:27;2.15;;;1.38;;
74543;SDS011;63016;55.030;38.710;2022-11-23T08:12:55;2.17;;;1.27;;
74543;SDS011;63016;55.030;38.710;2022-11-23T08:15:22;2.72;;;1.55;;
74543;SDS011;63016;55.030;38.710;2022-11-23T08:17:48;2.47;;;1.38;;
74543;SDS011;63016;55.030;38.710;2022-11-23T08:20:13;1.95;;;1.38;;
74543;SDS011;63016;55.030;38.710;2022-11-23T08:22:39;2.47;;;1.55;;
74543;SDS011;63016;55.030;38.710;2022-11-23T08:25:04;5.18;;;2.10;;
74543;SDS011;63016;55.030;38.710;2022-11-23T08:27:30;3.55;;;1.63;;
74543;SDS011;63016;55.030;38.710;2022-11-23T08:29:56;3.20;;;1.40;;
74543;SDS011;63016;55.030;38.710;2022-11-23T08:32:21;3.35;;;1.70;;
74543;SDS011;63016;55.030;38.710;2022-11-23T08:34:47;3.15;;;1.95;;
74543;SDS011;63016;55.030;38.710;2022-11-23T08:37:13;3.75;;;1.90;;
74543;SDS011;63016;55.030;38.710;2022-11-23T08:39:38;2.70;;;1.55;;
74543;SDS011;63016;55.030;38.710;2022-11-23T08:42:04;2.70;;;1.73;;
74543;SDS011;63016;55.030;38.710;2022-11-23T08:44:30;4.30;;;1.77;;
74543;SDS011;63016;55.030;38.710;2022-11-23T08:46:56;4.03;;;1.75;;
74543;SDS011;63016;55.030;38.710;2022-11-23T08:49:21;2.42;;;1.50;;
74543;SDS011;63016;55.030;38.710;2022-11-23T08:51:47;3.30;;;1.25;;
74543;SDS011;63016;55.030;38.710;2022-11-23T08:54:12;2.40;;;1.50;;
74543;SDS011;63016;55.030;38.710;2022-11-23T08:56:38;2.88;;;1.55;;
74543;SDS011;63016;55.030;38.710;2022-11-23T08:59:03;3.53;;;1.77;;
74543;SDS011;63016;55.030;38.710;2022-11-23T09:01:29;3.95;;;1.83;;
74543;SDS011;63016;55.030;38.710;2022-11-23T09:03:54;3.78;;;1.83;;
74543;SDS011;63016;55.030;38.710;2022-11-23T09:06:20;2.83;;;1.80;;
74543;SDS011;63016;55.030;38.710;2022-11-23T09:08:52;3.08;;;1.75;;
74543;SDS011;63016;55.030;38.710;2022-11-23T09:11:18;3.08;;;1.85;;
74543;SDS011;63016;55.030;38.710;2022-11-23T09:13:44;3.03;;;1.55;;
74543;SDS011;63016;55.030;38.710;2022-11-23T09:16:09;4.03;;;2.13;;
74543;SDS011;63016;55.030;38.710;2022-11-23T09:18:35;2.50;;;1.45;;
74543;SDS011;63016;55.030;38.710;2022-11-23T09:21:04;2.50;;;1.58;;
74543;SDS011;63016;55.030;38.710;2022-11-23T09:23:30;1.77;;;1.25;;
74543;SDS011;63016;55.030;38.710;2022-11-23T09:25:59;2.17;;;1.63;;
74543;SDS011;63016;55.030;38.710;2022-11-23T09:28:25;2.58;;;1.30;;
74543;SDS011;63016;55.030;38.710;2022-11-23T09:30:52;2.55;;;1.60;;
74543;SDS011;63016;55.030;38.710;2022-11-23T09:33:19;2.65;;;1.50;;
74543;SDS011;63016;55.030;38.710;2022-11-23T09:35:45;2.80;;;1.80;;
74543;SDS011;63016;55.030;38.710;2022-11-23T09:38:11;3.95;;;1.88;;
74543;SDS011;63016;55.030;38.710;2022-11-23T09:40:37;2.28;;;1.58;;
74543;SDS011;63016;55.030;38.710;2022-11-23T09:46:22;2.42;;;1.80;;
74543;SDS011;63016;55.030;38.710;2022-11-23T09:49:08;4.22;;;2.47;;
74543;SDS011;63016;55.030;38.710;2022-11-23T09:51:35;2.72;;;1.95;;
74543;SDS011;63016;55.030;38.710;2022-11-23T09:54:03;3.22;;;2.00;;
74543;SDS011;63016;55.030;38.710;2022-11-23T09:56:36;2.92;;;1.90;;
74543;SDS011;63016;55.030;38.710;2022-11-23T09:59:05;4.15;;;1.90;;
74543;SDS011;63016;55.030;38.710;2022-11-23T10:01:39;3.35;;;1.85;;
74543;SDS011;63016;55.030;38.710;2022-11-23T10:04:05;2.60;;;1.80;;
74543;SDS011;63016;55.030;38.710;2022-11-23T10:06:33;2.42;;;1.70;;
74543;SDS011;63016;55.030;38.710;2022-11-23T10:11:58;3.20;;;1.60;;
74543;SDS011;63016;55.030;38.710;2022-11-23T10:20:03;2.53;;;1.80;;
74543;SDS011;63016;55.030;38.710;2022-11-23T10:22:58;2.53;;;1.80;;
74543;SDS011;63016;55.030;38.710;2022-11-23T10:25:27;2.90;;;1.48;;
74543;SDS011;63016;55.030;38.710;2022-11-23T10:28:00;2.80;;;1.52;;
74543;SDS011;63016;55.030;38.710;2022-11-23T10:30:35;3.13;;;1.70;;
74543;SDS011;63016;55.030;38.710;2022-11-23T10:33:04;3.20;;;1.38;;
74543;SDS011;63016;55.030;38.710;2022-11-23T10:35:35;2.50;;;1.35;;
74543;SDS011;63016;55.030;38.710;2022-11-23T10:38:15;2.00;;;1.40;;
74543;SDS011;63016;55.030;38.710;2022-11-23T10:40:44;2.30;;;1.40;;
74543;SDS011;63016;55.030;38.710;2022-11-23T10:46:28;2.17;;;1.30;;
74543;SDS011;63016;55.030;38.710;2022-11-23T10:51:53;2.40;;;1.10;;
74543;SDS011;63016;55.030;38.710;2022-11-23T10:54:22;2.22;;;1.25;;
74543;SDS011;63016;55.030;38.710;2022-11-23T10:56:50;2.03;;;1.23;;
74543;SDS011;63016;55.030;38.710;2022-11-23T10:59:36;1.95;;;1.10;;
74543;SDS011;63016;55.030;38.710;2022-11-23T11:02:19;1.95;;;0.90;;
74543;SDS011;63016;55.030;38.710;2022-11-23T11:04:46;2.42;;;1.70;;
74543;SDS011;63016;55.030;38.710;2022-11-23T11:09:55;2.00;;;1.27;;
74543;SDS011;63016;55.030;38.710;2022-11-23T11:12:21;3.72;;;1.60;;
74543;SDS011;63016;55.030;38.710;2022-11-23T11:17:31;3.47;;;1.60;;
74543;SDS011;63016;55.030;38.710;2022-11-23T11:19:58;3.47;;;1.60;;
74543;SDS011;63016;55.030;38.710;2022-11-23T11:22:31;3.38;;;1.55;;
74543;SDS011;63016;55.030;38.710;2022-11-23T11:25:00;3.22;;;1.20;;
74543;SDS011;63016;55.030;38.710;2022-11-23T11:27:28;1.88;;;1.15;;
74543;SDS011;63016;55.030;38.710;2022-11-23T11:29:57;3.55;;;1.50;;
74543;SDS011;63016;55.030;38.710;2022-11-23T11:36:08;2.05;;;1.10;;
74543;SDS011;63016;55.030;38.710;2022-11-23T11:38:28;2.55;;;1.13;;
74543;SDS011;63016;55.030;38.710;2022-11-23T11:40:59;2.40;;;1.25;;
74543;SDS011;63016;55.030;38.710;2022-11-23T11:46:24;1.98;;;1.20;;
74543;SDS011;63016;55.030;38.710;2022-11-23T11:49:18;1.77;;;0.98;;
74543;SDS011;63016;55.030;38.710;2022-11-23T11:51:48;2.05;;;1.17;;
74543;SDS011;63016;55.030;38.710;2022-11-23T11:54:36;2.55;;;1.15;;
74543;SDS011;63016;55.030;38.710;2022-11-23T11:57:11;1.27;;;0.90;;
74543;SDS011;63016;55.030;38.710;2022-11-23T11:59:44;2.22;;;1.00;;
74543;SDS011;63016;55.030;38.710;2022-11-23T12:07:22;2.45;;;1.40;;
74543;SDS011;63016;55.030;38.710;2022-11-23T12:09:54;2.60;;;1.30;;
74543;SDS011;63016;55.030;38.710;2022-11-23T12:12:42;1.60;;;1.13;;
74543;SDS011;63016;55.030;38.710;2022-11-23T12:15:15;2.53;;;1.25;;
74543;SDS011;63016;55.030;38.710;2022-11-23T12:20:51;3.08;;;1.10;;
74543;SDS011;63016;55.030;38.710;2022-11-23T12:28:41;2.75;;;1.80;;
74543;SDS011;63016;55.030;38.710;2022-11-23T12:42:23;4.53;;;2.10;;
74543;SDS011;63016;55.030;38.710;2022-11-23T12:50:53;3.03;;;1.55;;
74543;SDS011;63016;55.030;38.710;2022-11-23T12:53:40;4.60;;;1.30;;
74543;SDS011;63016;55.030;38.710;2022-11-23T12:59:10;3.38;;;2.00;;
74543;SDS011;63016;55.030;38.710;2022-11-23T13:01:56;3.33;;;2.00;;
74543;SDS011;63016;55.030;38.710;2022-11-23T13:17:49;3.95;;;1.88;;
74543;SDS011;63016;55.030;38.710;2022-11-23T13:20:36;4.03;;;1.80;;
74543;SDS011;63016;55.030;38.710;2022-11-23T13:23:14;3.65;;;1.70;;
74543;SDS011;63016;55.030;38.710;2022-11-23T13:26:05;4.57;;;2.33;;
74543;SDS011;63016;55.030;38.710;2022-11-23T13:28:37;4.20;;;1.90;;
74543;SDS011;63016;55.030;38.710;2022-11-23T13:33:44;3.80;;;1.80;;
74543;SDS011;63016;55.030;38.710;2022-11-23T13:36:12;4.30;;;2.05;;
74543;SDS011;63016;55.030;38.710;2022-11-23T13:39:01;3.15;;;2.03;;
74543;SDS011;63016;55.030;38.710;2022-11-23T13:49:51;3.72;;;1.90;;
74543;SDS011;63016;55.030;38.710;2022-11-23T13:52:31;4.88;;;1.83;;
74543;SDS011;63016;55.030;38.710;2022-11-23T13:57:37;3.40;;;2.00;;
74543;SDS011;63016;55.030;38.710;2022-11-23T14:11:49;3.28;;;2.10;;
74543;SDS011;63016;55.030;38.710;2022-11-23T14:14:28;3.15;;;2.13;;
74543;SDS011;63016;55.030;38.710;2022-11-23T14:34:03;6.03;;;2.75;;
74543;SDS011;63016;55.030;38.710;2022-11-23T14:42:09;5.10;;;3.08;;
74543;SDS011;63016;55.030;38.710;2022-11-23T14:44:39;6.18;;;3.15;;
74543;SDS011;63016;55.030;38.710;2022-11-23T14:47:07;7.18;;;2.80;;
74543;SDS011;63016;55.030;38.710;2022-11-23T14:49:34;4.32;;;2.65;;
74543;SDS011;63016;55.030;38.710;2022-11-23T14:52:01;5.40;;;2.90;;
74543;SDS011;63016;55.030;38.710;2022-11-23T14:54:29;6.03;;;3.95;;
74543;SDS011;63016;55.030;38.710;2022-11-23T14:56:56;6.00;;;3.47;;
74543;SDS011;63016;55.030;38.710;2022-11-23T14:59:39;5.20;;;3.53;;
74543;SDS011;63016;55.030;38.710;2022-11-23T15:02:13;7.57;;;3.72;;
74543;SDS011;63016;55.030;38.710;2022-11-23T15:07:48;6.68;;;4.07;;
74543;SDS011;63016;55.030;38.710;2022-11-23T15:13:25;8.95;;;4.43;;
74543;SDS011;63016;55.030;38.710;2022-11-23T15:15:54;10.50;;;4.57;;
74543;SDS011;63016;55.030;38.710;2022-11-23T15:18:28;10.02;;;5.00;;
74543;SDS011;63016;55.030;38.710;2022-11-23T15:20:56;11.20;;;5.40;;
74543;SDS011;63016;55.030;38.710;2022-11-23T15:23:26;9.77;;;5.43;;
74543;SDS011;63016;55.030;38.710;2022-11-23T15:25:58;11.95;;;5.80;;
74543;SDS011;63016;55.030;38.710;2022-11-23T15:28:27;10.77;;;5.97;;
74543;SDS011;63016;55.030;38.710;2022-11-23T15:30:54;14.05;;;6.30;;
74543;SDS011;63016;55.030;38.710;2022-11-23T15:33:20;10.00;;;5.90;;
74543;SDS011;63016;55.030;38.710;2022-11-23T15:35:50;10.23;;;5.57;;
74543;SDS011;63016;55.030;38.710;2022-11-23T15:38:17;10.10;;;5.45;;
74543;SDS011;63016;55.030;38.710;2022-11-23T15:40:44;11.70;;;5.80;;
74543;SDS011;63016;55.030;38.710;2022-11-23T15:43:16;11.57;;;5.72;;
74543;SDS011;63016;55.030;38.710;2022-11-23T15:48:12;11.63;;;5.10;;
74543;SDS011;63016;55.030;38.710;2022-11-23T15:50:47;7.88;;;3.90;;
74543;SDS011;63016;55.030;38.710;2022-11-23T15:53:31;6.53;;;3.70;;
74543;SDS011;63016;55.030;38.710;2022-11-23T15:56:10;7.40;;;4.40;;
74543;SDS011;63016;55.030;38.710;2022-11-23T15:58:59;7.38;;;4.07;;
74543;SDS011;63016;55.030;38.710;2022-11-23T16:01:45;8.45;;;4.07;;
74543;SDS011;63016;55.030;38.710;2022-11-23T16:04:27;8.75;;;4.70;;
74543;SDS011;63016;55.030;38.710;2022-11-23T16:06:53;8.35;;;4.63;;
74543;SDS011;63016;55.030;38.710;2022-11-23T16:10:02;8.68;;;4.88;;
74543;SDS011;63016;55.030;38.710;2022-11-23T16:12:44;10.85;;;4.85;;
74543;SDS011;63016;55.030;38.710;2022-11-23T16:20:58;8.25;;;4.45;;
74543;SDS011;63016;55.030;38.710;2022-11-23T16:23:45;10.27;;;5.80;;
74543;SDS011;63016;55.030;38.710;2022-11-23T16:28:53;9.35;;;4.68;;
74543;SDS011;63016;55.030;38.710;2022-11-23T16:31:55;10.75;;;5.18;;
74543;SDS011;63016;55.030;38.710;2022-11-23T16:34:17;9.20;;;5.00;;
74543;SDS011;63016;55.030;38.710;2022-11-23T16:36:43;9.68;;;4.80;;
74543;SDS011;63016;55.030;38.710;2022-11-23T16:39:09;12.60;;;5.13;;
74543;SDS011;63016;55.030;38.710;2022-11-23T16:41:35;10.23;;;5.43;;
74543;SDS011;63016;55.030;38.710;2022-11-23T16:44:01;10.02;;;5.68;;
74543;SDS011;63016;55.030;38.710;2022-11-23T16:46:27;9.23;;;5.00;;
74543;SDS011;63016;55.030;38.710;2022-11-23T16:48:53;10.43;;;5.53;;
74543;SDS011;63016;55.030;38.710;2022-11-23T16:51:21;10.88;;;5.90;;
74543;SDS011;63016;55.030;38.710;2022-11-23T16:53:47;12.10;;;5.97;;
74543;SDS011;63016;55.030;38.710;2022-11-23T16:56:17;13.23;;;6.75;;
74543;SDS011;63016;55.030;38.710;2022-11-23T16:58:45;10.48;;;6.00;;
74543;SDS011;63016;55.030;38.710;2022-11-23T17:01:18;11.15;;;6.43;;
74543;SDS011;63016;55.030;38.710;2022-11-23T17:03:47;12.18;;;6.38;;
74543;SDS011;63016;55.030;38.710;2022-11-23T17:06:14;14.65;;;7.45;;
74543;SDS011;63016;55.030;38.710;2022-11-23T17:08:41;14.50;;;7.07;;
74543;SDS011;63016;55.030;38.710;2022-11-23T17:11:11;14.60;;;6.80;;